Time;durP1;ratioP1;P1;durP2;ratioP2;P2;SDS_P1;SDS_P2;PMS_P1;PMS_P2;Temp;Humidity;BMP_temperature;BMP_pressure;BME280_temperature;BME280_humidity;BME280_pressure;Samples;Min_cycle;Max_cycle;Signal;HPM_P1;HPM_P2
2023/01/16 00:01:38;;;;;;;0.67;0.40;;;;;;;5.17;100.00;98610.41;6128076;23;20175;-81
2023/01/16 00:04:05;;;;;;;0.30;0.30;;;;;;;5.19;100.00;98610.97;6127973;23;20576;-81
2023/01/16 00:06:31;;;;;;;0.30;0.30;;;;;;;5.17;100.00;98613.06;6128066;23;20162;-80
2023/01/16 00:08:58;;;;;;;0.80;0.30;;;;;;;5.06;100.00;98609.19;6128275;23;20163;-80
2023/01/16 00:11:24;;;;;;;0.33;0.30;;;;;;;5.07;100.00;98623.28;6128391;23;20164;-80
2023/01/16 00:13:52;;;;;;;0.30;0.30;;;;;;;4.97;100.00;98622.91;6129447;23;20663;-81
2023/01/16 00:16:20;;;;;;;0.30;0.30;;;;;;;4.87;100.00;98607.41;6229201;23;20233;-81
2023/01/16 00:18:48;;;;;;;0.77;0.30;;;;;;;4.87;100.00;98613.53;6128999;23;20617;-81
2023/01/16 00:21:15;;;;;;;0.43;0.40;;;;;;;4.92;100.00;98612.09;6128639;23;20174;-81
2023/01/16 00:23:42;;;;;;;1.23;0.70;;;;;;;4.81;100.00;98603.72;6079790;23;20172;-80
2023/01/16 00:26:09;;;;;;;0.50;0.50;;;;;;;4.76;100.00;98598.22;6129478;23;20160;-81
2023/01/16 00:28:37;;;;;;;0.37;0.37;;;;;;;4.77;100.00;98591.91;6129181;23;20171;-81
2023/01/16 00:31:05;;;;;;;0.30;0.30;;;;;;;4.78;100.00;98596.19;6129827;23;20190;-81
2023/01/16 00:33:32;;;;;;;0.30;0.30;;;;;;;4.77;100.00;98596.41;6103129;23;20210;-80
2023/01/16 00:36:00;;;;;;;0.30;0.30;;;;;;;4.78;100.00;98598.84;6128250;23;20248;-80
2023/01/16 00:38:26;;;;;;;0.30;0.30;;;;;;;4.69;100.00;98591.31;6128719;23;20218;-80
2023/01/16 00:40:53;;;;;;;0.40;0.33;;;;;;;4.64;100.00;98597.25;6229320;23;20164;-81
2023/01/16 00:43:20;;;;;;;0.47;0.40;;;;;;;4.63;100.00;98590.31;6128932;23;20215;-80
2023/01/16 00:45:46;;;;;;;0.40;0.40;;;;;;;4.61;100.00;98589.72;6128055;23;20229;-81
2023/01/16 00:48:13;;;;;;;1.30;0.40;;;;;;;4.68;100.00;98592.34;6128731;23;20160;-80
2023/01/16 00:50:40;;;;;;;0.30;0.30;;;;;;;4.76;100.00;98589.44;6128830;23;20164;-81
2023/01/16 00:53:07;;;;;;;0.30;0.30;;;;;;;4.76;100.00;98587.63;6128919;23;20180;-81
2023/01/16 00:55:36;;;;;;;0.73;0.40;;;;;;;4.75;100.00;98579.88;6129044;23;20175;-81
2023/01/16 00:58:03;;;;;;;0.57;0.30;;;;;;;4.72;100.00;98567.84;6129010;23;20171;-81
2023/01/16 01:00:30;;;;;;;0.47;0.47;;;;;;;4.67;100.00;98550.91;6129334;23;20668;-80
2023/01/16 01:02:57;;;;;;;0.50;0.27;;;;;;;4.68;100.00;98557.84;6078772;23;20182;-81
2023/01/16 01:05:24;;;;;;;0.73;0.30;;;;;;;4.66;100.00;98557.25;6129142;23;20160;-80
2023/01/16 01:07:50;;;;;;;0.30;0.30;;;;;;;4.59;100.00;98557.25;6229830;23;20601;-80
2023/01/16 01:10:17;;;;;;;0.43;0.30;;;;;;;4.51;100.00;98546.88;6204401;23;20160;-81
2023/01/16 01:12:44;;;;;;;0.63;0.43;;;;;;;4.64;100.00;98543.38;6127850;23;20183;-81
2023/01/16 01:15:10;;;;;;;0.40;0.40;;;;;;;4.76;100.00;98545.16;6128565;23;20164;-81
2023/01/16 01:17:37;;;;;;;0.70;0.30;;;;;;;4.79;100.00;98535.97;6128304;23;20178;-81
2023/01/16 01:20:05;;;;;;;0.73;0.40;;;;;;;4.76;100.00;98539.84;6127897;23;20218;-80
2023/01/16 01:22:31;;;;;;;0.27;0.20;;;;;;;4.88;100.00;98543.50;6128743;23;20242;-81
2023/01/16 01:24:58;;;;;;;0.47;0.30;;;;;;;4.79;100.00;98536.81;6229333;23;20171;-80
2023/01/16 01:27:24;;;;;;;1.40;0.30;;;;;;;4.80;100.00;98530.47;6127536;23;20626;-81
2023/01/16 01:29:51;;;;;;;0.40;0.30;;;;;;;4.75;100.00;98530.28;6127839;23;20239;-81
2023/01/16 01:32:18;;;;;;;1.00;0.30;;;;;;;4.69;100.00;98536.41;6101683;23;20558;-81
2023/01/16 01:34:44;;;;;;;1.17;0.50;;;;;;;4.84;100.00;98534.34;6127742;23;20198;-81
2023/01/16 01:37:11;;;;;;;0.50;0.30;;;;;;;4.78;100.00;98524.56;6127541;23;20243;-80
2023/01/16 01:39:38;;;;;;;0.23;0.17;;;;;;;4.73;100.00;98531.50;6205386;23;20214;-80
2023/01/16 01:44:55;;;;;;;0.27;0.27;;;;;;;4.76;100.00;98531.91;6129202;23;20152;-80
2023/01/16 01:47:34;;;;;;;0.43;0.20;;;;;;;4.65;100.00;98523.78;6103076;23;20152;-81
2023/01/16 01:50:04;;;;;;;0.20;0.20;;;;;;;4.72;100.00;98528.03;6129259;23;20585;-81
2023/01/16 01:52:31;;;;;;;0.20;0.20;;;;;;;4.65;100.00;98513.97;6102651;23;20179;-80
2023/01/16 01:55:04;;;;;;;0.83;0.23;;;;;;;4.67;100.00;98514.56;6103036;23;20172;-81
2023/01/16 01:57:33;;;;;;;1.03;0.30;;;;;;;4.63;100.00;98516.00;6128407;23;20163;-80
2023/01/16 02:00:08;;;;;;;0.53;0.30;;;;;;;4.66;100.00;98518.28;6128574;23;20164;-80
2023/01/16 02:02:45;;;;;;;0.90;0.30;;;;;;;4.65;100.00;98521.13;6103817;23;20328;-80
2023/01/16 02:05:12;;;;;;;0.80;0.40;;;;;;;4.69;100.00;98519.69;6128707;23;20158;-81
2023/01/16 02:07:39;;;;;;;0.73;0.30;;;;;;;4.66;100.00;98518.28;6103135;23;20187;-81
2023/01/16 02:10:17;;;;;;;0.60;0.40;;;;;;;4.72;100.00;98522.72;6101957;23;20275;-80
2023/01/16 02:12:44;;;;;;;0.33;0.30;;;;;;;4.69;100.00;98511.72;6101982;23;20235;-80
2023/01/16 02:15:10;;;;;;;0.77;0.30;;;;;;;4.65;100.00;98511.34;6128572;23;20183;-81
2023/01/16 02:20:31;;;;;;;2.47;0.70;;;;;;;4.80;100.00;98506.59;6104715;23;20698;-80
2023/01/16 02:23:16;;;;;;;0.60;0.60;;;;;;;4.73;100.00;98505.78;6127031;23;20207;-80
2023/01/16 02:26:01;;;;;;;1.27;0.60;;;;;;;4.68;100.00;98505.59;6123876;23;20211;-81
2023/01/16 02:29:01;;;;;;;0.90;0.70;;;;;;;4.65;100.00;98497.25;6202103;23;20226;-81
2023/01/16 02:31:37;;;;;;;1.00;0.70;;;;;;;4.62;100.00;98479.91;6125478;23;20282;-80
2023/01/16 02:34:25;;;;;;;1.13;0.80;;;;;;;4.54;100.00;98474.00;6173707;23;20257;-80
2023/01/16 02:37:13;;;;;;;1.00;0.70;;;;;;;4.47;100.00;98466.09;6126106;23;20215;-80
2023/01/16 02:39:59;;;;;;;1.50;0.70;;;;;;;4.50;100.00;98464.84;6127098;23;20212;-81
2023/01/16 02:42:44;;;;;;;1.30;0.73;;;;;;;4.65;100.00;98465.41;6099889;23;20230;-81
2023/01/16 02:45:17;;;;;;;0.93;0.70;;;;;;;4.61;100.00;98458.91;6101581;23;20215;-81
2023/01/16 02:47:56;;;;;;;0.80;0.63;;;;;;;4.38;100.00;98464.69;6127002;23;20231;-80
2023/01/16 02:50:31;;;;;;;0.90;0.70;;;;;;;4.34;100.00;98469.56;6125090;23;20203;-80
2023/01/16 02:53:21;;;;;;;1.47;0.60;;;;;;;4.36;100.00;98458.75;6228243;23;20203;-81
2023/01/16 02:55:52;;;;;;;1.13;0.60;;;;;;;4.30;100.00;98449.78;6066592;23;20242;-81
2023/01/16 02:58:19;;;;;;;1.73;0.80;;;;;;;4.37;100.00;98453.25;6075086;23;20234;-81
2023/01/16 03:00:55;;;;;;;0.87;0.60;;;;;;;4.32;100.00;98450.41;6101372;23;20213;-81
2023/01/16 03:03:38;;;;;;;0.73;0.73;;;;;;;4.28;100.00;98449.22;6101502;23;20349;-80
2023/01/16 03:06:27;;;;;;;1.30;0.70;;;;;;;4.23;100.00;98442.88;6100526;23;20680;-80
2023/01/16 03:09:36;;;;;;;1.10;0.60;;;;;;;4.25;100.00;98454.09;6101988;23;20215;-80
2023/01/16 03:12:22;;;;;;;0.83;0.70;;;;;;;4.22;100.00;98439.44;6100718;23;20207;-80
2023/01/16 03:14:56;;;;;;;1.00;0.80;;;;;;;4.21;100.00;98448.38;6123858;23;20687;-81
2023/01/16 03:17:39;;;;;;;0.60;0.60;;;;;;;4.24;100.00;98444.53;6227945;23;20210;-81
2023/01/16 03:20:36;;;;;;;1.70;1.10;;;;;;;4.24;100.00;98442.69;6103963;23;20187;-80
2023/01/16 03:23:11;;;;;;;0.80;0.80;;;;;;;4.21;100.00;98437.78;6128706;23;20227;-81
2023/01/16 03:25:44;;;;;;;1.47;1.07;;;;;;;4.21;100.00;98429.84;6127358;23;20214;-80
2023/01/16 03:28:20;;;;;;;1.20;1.03;;;;;;;4.27;100.00;98433.50;6127879;23;20691;-80
2023/01/16 03:31:14;;;;;;;1.60;1.20;;;;;;;4.27;100.00;98428.19;6080121;23;20203;-80
2023/01/16 03:34:26;;;;;;;2.43;1.20;;;;;;;4.21;100.00;98432.47;6118137;23;20234;-81
2023/01/16 03:36:58;;;;;;;1.57;1.20;;;;;;;4.24;100.00;98431.28;6126353;23;20216;-81
2023/01/16 03:39:35;;;;;;;1.63;1.30;;;;;;;4.20;100.00;98428.19;6101188;23;20227;-81
2023/01/16 03:42:09;;;;;;;2.50;1.27;;;;;;;4.16;100.00;98418.22;6126460;23;20529;-80
2023/01/16 03:44:39;;;;;;;1.93;1.17;;;;;;;4.17;100.00;98423.31;6102309;23;20234;-80
2023/01/16 03:47:10;;;;;;;1.43;1.33;;;;;;;4.19;100.00;98412.53;6078041;23;20748;-81
2023/01/16 03:49:40;;;;;;;3.60;1.20;;;;;;;4.19;100.00;98407.22;6102783;23;20203;-81
2023/01/16 03:52:11;;;;;;;1.10;1.03;;;;;;;4.17;100.00;98403.94;6127732;23;20588;-80
2023/01/16 03:54:56;;;;;;;1.20;1.10;;;;;;;4.17;100.00;98407.41;6080905;23;20561;-81
2023/01/16 03:57:29;;;;;;;1.67;1.13;;;;;;;4.12;100.00;98409.88;6089393;23;20223;-81
2023/01/16 03:59:56;;;;;;;1.57;1.10;;;;;;;4.10;100.00;98414.59;6103093;23;20567;-81
2023/01/16 04:02:27;;;;;;;1.93;1.10;;;;;;;4.12;100.00;98411.72;6227980;23;20214;-80
2023/01/16 04:04:59;;;;;;;1.30;1.20;;;;;;;4.13;100.00;98411.50;6101623;23;20207;-81
2023/01/16 04:07:47;;;;;;;1.20;0.70;;;;;;;4.13;100.00;98414.16;6078500;23;20211;-80
2023/01/16 04:10:20;;;;;;;0.80;0.80;;;;;;;4.08;100.00;98400.72;6101325;23;20658;-80
2023/01/16 04:12:53;;;;;;;1.00;0.90;;;;;;;4.05;100.00;98385.22;6100127;23;20287;-80
2023/01/16 04:15:21;;;;;;;1.67;0.70;;;;;;;4.13;100.00;98402.75;6100597;23;20278;-81
2023/01/16 04:17:48;;;;;;;1.00;0.60;;;;;;;4.18;100.00;98384.38;6101968;23;20541;-81
2023/01/16 04:20:15;;;;;;;0.90;0.70;;;;;;;4.14;100.00;98380.53;6126695;23;20212;-80
2023/01/16 04:22:47;;;;;;;0.90;0.80;;;;;;;4.13;100.00;98379.69;6126493;23;20643;-81
2023/01/16 04:25:13;;;;;;;1.43;0.73;;;;;;;4.17;100.00;98375.59;6101014;23;20207;-80
2023/01/16 04:27:40;;;;;;;0.50;0.50;;;;;;;4.17;100.00;98367.66;6097316;23;20591;-81
2023/01/16 04:30:07;;;;;;;0.43;0.43;;;;;;;4.32;100.00;98375.34;6109853;23;20212;-80
2023/01/16 04:32:34;;;;;;;1.37;0.50;;;;;;;4.26;100.00;98373.53;6078897;23;20633;-80
2023/01/16 04:35:01;;;;;;;0.80;0.50;;;;;;;4.32;100.00;98367.41;6126666;23;20230;-80
2023/01/16 04:37:27;;;;;;;0.70;0.40;;;;;;;4.33;100.00;98371.69;6227810;23;20214;-81
2023/01/16 04:39:54;;;;;;;0.87;0.40;;;;;;;4.36;100.00;98372.06;6125964;23;20234;-81
2023/01/16 04:42:20;;;;;;;0.60;0.57;;;;;;;4.38;100.00;98370.03;6125513;23;20218;-80
2023/01/16 04:44:47;;;;;;;0.93;0.60;;;;;;;4.46;100.00;98371.63;6127239;23;20649;-80
2023/01/16 04:47:14;;;;;;;0.40;0.40;;;;;;;4.49;100.00;98365.88;6128230;23;20246;-80
2023/01/16 04:49:40;;;;;;;1.03;0.30;;;;;;;4.46;100.00;98368.97;6127659;23;20207;-81
2023/01/16 04:52:07;;;;;;;0.50;0.40;;;;;;;4.49;100.00;98373.84;6101748;23;20184;-81
2023/01/16 04:54:33;;;;;;;0.50;0.20;;;;;;;4.53;100.00;98367.09;6126150;23;20208;-80
2023/01/16 04:57:00;;;;;;;0.80;0.47;;;;;;;4.49;100.00;98359.78;6127875;23;20212;-81
2023/01/16 04:59:27;;;;;;;1.03;0.50;;;;;;;4.43;100.00;98359.59;6127211;23;20206;-80
2023/01/16 05:01:54;;;;;;;0.30;0.30;;;;;;;4.42;100.00;98357.97;6228261;23;20203;-81
2023/01/16 05:04:21;;;;;;;0.70;0.47;;;;;;;4.44;100.00;98363.06;6127929;23;20231;-81
2023/01/16 05:06:47;;;;;;;0.50;0.27;;;;;;;4.52;100.00;98364.66;6229575;23;20208;-80
2023/01/16 05:09:14;;;;;;;0.20;0.20;;;;;;;4.45;100.00;98370.00;6127103;23;20211;-81
2023/01/16 05:11:41;;;;;;;0.60;0.20;;;;;;;4.45;100.00;98370.00;6228776;23;20310;-80
2023/01/16 05:14:08;;;;;;;1.93;0.27;;;;;;;4.43;100.00;98367.53;6126804;23;20212;-80
2023/01/16 05:16:35;;;;;;;0.53;0.20;;;;;;;4.48;100.00;98374.88;6101238;23;20215;-80
2023/01/16 05:19:02;;;;;;;0.40;0.17;;;;;;;4.41;100.00;98363.47;6126222;23;20208;-80
2023/01/16 05:21:29;;;;;;;0.30;0.30;;;;;;;4.40;100.00;98360.00;6228671;23;20214;-80
2023/01/16 05:23:56;;;;;;;0.87;0.30;;;;;;;4.37;100.00;98360.44;6101618;23;20207;-81
2023/01/16 05:26:23;;;;;;;1.27;0.23;;;;;;;4.38;100.00;98358.63;6127131;23;20204;-80
2023/01/16 05:28:49;;;;;;;0.93;0.40;;;;;;;4.38;100.00;98354.13;6127459;23;20313;-80
2023/01/16 05:31:16;;;;;;;0.30;0.30;;;;;;;4.41;100.00;98353.69;6126548;23;20282;-81
2023/01/16 05:33:43;;;;;;;0.30;0.23;;;;;;;4.41;100.00;98353.69;6127103;23;20218;-81
2023/01/16 05:36:10;;;;;;;0.47;0.30;;;;;;;4.46;100.00;98349.59;6126807;23;20195;-80
2023/01/16 05:38:36;;;;;;;1.20;0.20;;;;;;;4.41;100.00;98340.44;6126797;23;20218;-80
2023/01/16 05:41:03;;;;;;;1.80;0.20;;;;;;;4.46;100.00;98342.44;6124161;23;20212;-81
2023/01/16 05:43:30;;;;;;;0.50;0.30;;;;;;;4.45;100.00;98335.50;6127071;23;20222;-81
2023/01/16 05:45:57;;;;;;;0.37;0.23;;;;;;;4.49;100.00;98331.41;6127048;23;20254;-80
2023/01/16 05:48:23;;;;;;;0.87;0.30;;;;;;;4.51;100.00;98326.72;6124684;23;20200;-81
2023/01/16 05:50:50;;;;;;;2.03;0.30;;;;;;;4.49;100.00;98325.28;6175641;23;20246;-80
2023/01/16 05:53:17;;;;;;;0.67;0.20;;;;;;;4.48;100.00;98311.22;6122170;23;20286;-80
2023/01/16 05:55:46;;;;;;;0.50;0.20;;;;;;;4.56;100.00;98310.97;6098709;23;20212;-80
2023/01/16 05:58:14;;;;;;;0.80;0.30;;;;;;;4.50;100.00;98311.81;6122824;23;20286;-80
2023/01/16 06:00:42;;;;;;;0.43;0.27;;;;;;;4.46;100.00;98304.50;6123213;23;20210;-80
2023/01/16 06:03:09;;;;;;;0.20;0.13;;;;;;;4.45;100.00;98293.09;6099361;23;20282;-80
2023/01/16 06:05:36;;;;;;;0.10;0.10;;;;;;;4.50;100.00;98284.47;6097096;23;20540;-80
2023/01/16 06:08:04;;;;;;;0.20;0.20;;;;;;;4.42;100.00;98277.59;6120433;23;20218;-80
2023/01/16 06:10:31;;;;;;;0.47;0.23;;;;;;;4.35;100.00;98274.16;6099751;23;20640;-81
2023/01/16 06:12:57;;;;;;;1.90;1.00;;;;;;;4.34;100.00;98269.88;6098771;23;20279;-80
2023/01/16 06:15:24;;;;;;;0.40;0.30;;;;;;;4.32;100.00;98269.28;6126106;23;20211;-80
2023/01/16 06:17:53;;;;;;;0.30;0.20;;;;;;;4.35;100.00;98260.91;6125284;23;20208;-80
2023/01/16 06:20:20;;;;;;;0.30;0.30;;;;;;;4.33;100.00;98255.03;6125435;23;20226;-81
2023/01/16 06:22:47;;;;;;;0.20;0.20;;;;;;;4.27;100.00;98261.97;6125960;23;20211;-80
2023/01/16 06:25:13;;;;;;;0.57;0.20;;;;;;;4.27;100.00;98259.31;6198082;23;20208;-80
2023/01/16 06:27:40;;;;;;;0.50;0.20;;;;;;;4.25;100.00;98269.31;6115313;23;20214;-80
2023/01/16 06:30:07;;;;;;;0.53;0.20;;;;;;;4.24;100.00;98256.28;6123235;23;20211;-79
2023/01/16 06:32:34;;;;;;;0.47;0.10;;;;;;;4.20;100.00;98257.75;6125952;23;20207;-80
2023/01/16 06:35:00;;;;;;;0.40;0.20;;;;;;;4.21;100.00;98244.25;6226690;23;20204;-80
2023/01/16 06:37:27;;;;;;;0.20;0.20;;;;;;;4.19;100.00;98259.59;6125858;23;20207;-80
2023/01/16 06:39:56;;;;;;;0.87;0.30;;;;;;;4.11;100.00;98235.94;6125072;23;20214;-80
2023/01/16 06:42:23;;;;;;;1.50;0.20;;;;;;;4.14;100.00;98237.38;6107224;23;20253;-80
2023/01/16 06:44:49;;;;;;;1.03;0.23;;;;;;;4.15;100.00;98233.72;6104784;23;20215;-80
2023/01/16 06:47:16;;;;;;;0.53;0.10;;;;;;;4.08;100.00;98239.03;6126473;23;20184;-80
2023/01/16 06:49:42;;;;;;;0.33;0.20;;;;;;;4.09;100.00;98243.31;6125780;23;20217;-80
2023/01/16 06:52:09;;;;;;;0.40;0.40;;;;;;;4.13;100.00;98233.09;6226193;23;20223;-80
2023/01/16 06:54:36;;;;;;;0.83;0.50;;;;;;;4.10;100.00;98228.22;6205246;23;20204;-80
2023/01/16 06:57:02;;;;;;;0.23;0.20;;;;;;;4.07;100.00;98218.84;6105486;23;20211;-80
2023/01/16 06:59:29;;;;;;;0.10;0.10;;;;;;;4.08;100.00;98212.53;6125483;23;20229;-80
2023/01/16 07:01:55;;;;;;;0.20;0.10;;;;;;;4.18;100.00;98201.47;6125341;23;20207;-80
2023/01/16 07:04:23;;;;;;;0.83;0.10;;;;;;;4.21;100.00;98190.41;6124164;23;20280;-81
2023/01/16 07:06:52;;;;;;;0.10;0.10;;;;;;;4.21;100.00;98177.16;6124793;23;20210;-81
2023/01/16 07:09:22;;;;;;;0.20;0.10;;;;;;;4.25;100.00;98187.13;6124714;23;20322;-80
2023/01/16 07:11:48;;;;;;;0.67;0.17;;;;;;;4.24;100.00;98192.66;6123266;23;20284;-80
2023/01/16 07:22:38;;;;;;;0.30;0.10;;;;;;;4.27;100.00;98166.53;6124995;23;20231;-80
2023/01/16 07:25:20;;;;;;;0.20;0.20;;;;;;;4.35;100.00;98144.22;6219271;23;20207;-80
2023/01/16 07:27:48;;;;;;;0.37;0.10;;;;;;;4.37;100.00;98144.84;6124888;23;20264;-80
2023/01/16 07:30:16;;;;;;;0.73;0.40;;;;;;;4.39;100.00;98142.78;6099335;23;20679;-80
2023/01/16 07:32:44;;;;;;;0.40;0.27;;;;;;;4.42;100.00;98148.47;6124882;23;20210;-80
2023/01/16 07:35:10;;;;;;;0.30;0.30;;;;;;;4.46;100.00;98140.06;6099235;23;20270;-80
2023/01/16 07:37:38;;;;;;;0.50;0.40;;;;;;;4.48;100.00;98119.47;6124205;23;20203;-80
2023/01/16 07:40:06;;;;;;;0.27;0.20;;;;;;;4.53;100.00;98120.41;6124265;23;20213;-80
2023/01/16 07:42:32;;;;;;;0.83;0.40;;;;;;;4.50;100.00;98115.56;6124223;23;20687;-80
2023/01/16 07:44:59;;;;;;;0.87;0.27;;;;;;;4.58;100.00;98117.13;6125914;23;20184;-80
2023/01/16 07:47:26;;;;;;;0.40;0.30;;;;;;;4.58;100.00;98117.13;6227377;23;20211;-81
2023/01/16 07:49:52;;;;;;;0.60;0.10;;;;;;;4.66;100.00;98106.25;6101043;23;20287;-81
2023/01/16 07:52:19;;;;;;;1.07;0.30;;;;;;;4.63;100.00;98098.69;6124142;23;20207;-80
2023/01/16 07:54:46;;;;;;;0.63;0.40;;;;;;;4.64;100.00;98082.56;6125735;23;20290;-80
2023/01/16 07:57:12;;;;;;;1.07;0.50;;;;;;;4.71;100.00;98082.53;6125641;23;20745;-80
2023/01/16 07:59:39;;;;;;;1.17;0.70;;;;;;;4.66;100.00;98074.41;6126072;23;20203;-81
2023/01/16 08:02:05;;;;;;;1.23;0.50;;;;;;;4.70;100.00;98070.28;6125157;23;20211;-80
2023/01/16 08:04:32;;;;;;;0.90;0.60;;;;;;;4.58;100.00;98048.97;6226604;23;20257;-80
2023/01/16 08:06:59;;;;;;;0.50;0.50;;;;;;;4.65;100.00;98052.38;6125542;23;20267;-80
2023/01/16 08:09:25;;;;;;;1.33;0.60;;;;;;;4.66;100.00;98040.75;6125490;23;20210;-81
2023/01/16 08:11:52;;;;;;;0.83;0.63;;;;;;;4.62;100.00;98018.31;6124575;23;20234;-81
2023/01/16 08:14:19;;;;;;;0.73;0.60;;;;;;;4.64;100.00;98021.56;6125133;23;20211;-80
2023/01/16 08:16:45;;;;;;;0.93;0.60;;;;;;;4.59;100.00;98013.47;6126103;23;20229;-81
2023/01/16 08:19:12;;;;;;;2.30;0.80;;;;;;;4.60;100.00;98004.47;6228028;23;20211;-80
2023/01/16 08:21:39;;;;;;;5.27;3.50;;;;;;;4.63;100.00;97995.25;6127638;23;20211;-82
2023/01/16 08:24:05;;;;;;;1.47;1.20;;;;;;;4.62;100.00;97985.69;6100339;23;20710;-80
2023/01/16 08:26:32;;;;;;;1.17;0.50;;;;;;;4.63;100.00;97976.69;6228969;23;20195;-80
2023/01/16 08:29:01;;;;;;;0.80;0.60;;;;;;;4.74;100.00;97979.41;6101066;23;20212;-81
2023/01/16 08:31:28;;;;;;;1.10;0.63;;;;;;;4.81;100.00;97982.78;6126730;23;20211;-80
2023/01/16 09:24:38;;;;;;;1.90;0.40;;;;;;;7.06;100.00;97892.88;6231201;22;20516;31
2023/01/16 09:27:05;;;;;;;0.50;0.47;;;;;;;6.94;100.00;97876.97;6220683;22;20200;-81
2023/01/16 09:29:32;;;;;;;0.90;0.53;;;;;;;6.83;100.00;97863.69;6251011;23;20280;-80
2023/01/16 09:32:00;;;;;;;0.70;0.50;;;;;;;6.81;100.00;97866.59;6246196;23;20280;-80
2023/01/16 09:34:27;;;;;;;0.50;0.50;;;;;;;6.80;100.00;97859.69;6251606;23;20254;-79
2023/01/16 09:36:54;;;;;;;0.60;0.60;;;;;;;6.77;100.00;97857.47;6247737;23;20207;-80
2023/01/16 09:39:20;;;;;;;1.00;0.80;;;;;;;6.79;100.00;97852.72;6246575;23;20204;-81
2023/01/16 09:45:09;;;;;;;1.47;0.80;;;;;;;6.93;100.00;97843.41;6219329;23;20205;-81
2023/01/16 09:47:40;;;;;;;1.23;0.80;;;;;;;7.04;100.00;97839.06;6225620;23;20208;-80
2023/01/16 09:50:17;;;;;;;3.00;0.90;;;;;;;7.14;100.00;97833.91;6220363;23;20200;-80
2023/01/16 09:58:36;;;;;;;1.43;1.03;;;;;;;7.19;100.00;97825.19;6261664;23;20196;-81
2023/01/16 10:01:03;;;;;;;1.50;1.40;;;;;;;7.16;100.00;97823.81;6211554;22;20205;-82
2023/01/16 10:03:30;;;;;;;1.60;1.10;;;;;;;7.06;100.00;97813.81;6230530;23;20288;-82
2023/01/16 10:06:02;;;;;;;1.97;1.00;;;;;;;7.06;100.00;97819.13;6201351;23;20213;-82
2023/01/16 10:09:19;;;;;;;1.60;1.03;;;;;;;7.01;100.00;97796.94;6208158;22;20197;-83
2023/01/16 10:12:12;;;;;;;2.60;1.10;;;;;;;7.00;100.00;97790.78;6206071;23;20219;-82
2023/01/16 10:15:00;;;;;;;3.37;1.60;;;;;;;7.11;100.00;97781.13;6202316;23;20221;-82
2023/01/16 10:17:36;;;;;;;6.17;2.67;;;;;;;7.19;100.00;97772.72;6196721;23;20731;-82
2023/01/16 10:20:28;;;;;;;4.27;2.07;;;;;;;7.27;100.00;97772.34;6224276;23;20256;-81
2023/01/16 10:23:17;;;;;;;1.83;1.10;;;;;;;7.30;100.00;97761.19;6199261;23;20220;-82
2023/01/16 10:25:54;;;;;;;1.27;1.00;;;;;;;7.28;100.00;97757.94;6222976;22;20662;-81
2023/01/16 10:28:34;;;;;;;1.03;0.80;;;;;;;7.28;100.00;97747.28;6171379;23;20222;-81
2023/01/16 10:31:07;;;;;;;1.53;0.90;;;;;;;7.37;100.00;97743.16;6221211;23;20518;-81
2023/01/16 10:33:46;;;;;;;0.90;0.57;;;;;;;7.31;100.00;97743.34;6224459;23;20216;-82
2023/01/16 10:36:20;;;;;;;0.93;0.70;;;;;;;7.22;100.00;97744.81;6195348;23;20209;-81
2023/01/16 10:38:56;;;;;;;1.90;0.90;;;;;;;7.03;100.00;97737.06;6193646;23;20239;-81
2023/01/16 10:51:07;;;;;;;3.27;1.80;;;;;;;6.68;100.00;97714.38;6200518;23;20583;-82
2023/01/16 10:53:35;;;;;;;1.93;1.47;;;;;;;6.59;100.00;97698.00;6202310;23;20242;-82
2023/01/16 10:56:03;;;;;;;1.87;1.40;;;;;;;6.56;100.00;97691.31;6229408;23;20201;-81
2023/01/16 10:58:32;;;;;;;4.10;2.40;;;;;;;6.55;100.00;97688.91;6198407;23;20202;-81
2023/01/16 11:01:06;;;;;;;3.17;2.40;;;;;;;6.55;100.00;97680.91;6222353;23;20212;-81
2023/01/16 11:03:39;;;;;;;2.63;2.00;;;;;;;6.38;100.00;97672.94;6227236;23;20209;-81
2023/01/16 11:06:23;;;;;;;2.20;1.70;;;;;;;6.40;100.00;97668.16;6183488;23;20217;-82
2023/01/16 11:09:15;;;;;;;3.80;2.20;;;;;;;6.35;100.00;97662.75;6202989;23;20288;-82
2023/01/16 11:18:49;;;;;;;2.90;2.30;;;;;;;6.06;100.00;97626.63;6228138;23;20284;-81
2023/01/16 11:21:24;;;;;;;2.10;1.90;;;;;;;5.80;100.00;97617.34;6202679;23;20213;-81
2023/01/16 11:24:15;;;;;;;3.50;2.03;;;;;;;5.73;100.00;97616.69;6203581;23;20552;-82
2023/01/16 11:26:46;;;;;;;3.97;2.60;;;;;;;5.69;100.00;97608.38;6202591;23;20150;-81
2023/01/16 11:29:16;;;;;;;2.93;2.27;;;;;;;5.95;100.00;97599.06;6229408;23;20142;-82
2023/01/16 11:31:48;;;;;;;2.30;2.10;;;;;;;6.30;100.00;97579.44;6204290;23;20487;-82
2023/01/16 11:34:15;;;;;;;2.97;2.67;;;;;;;6.48;100.00;97566.69;6152679;23;20169;-82
2023/01/16 11:36:42;;;;;;;3.33;2.80;;;;;;;6.62;100.00;97562.63;6203846;23;20185;-82
2023/01/16 11:39:19;;;;;;;2.80;2.53;;;;;;;6.65;100.00;97561.34;6203406;23;20176;-82
2023/01/16 11:41:48;;;;;;;3.07;2.53;;;;;;;6.71;100.00;97554.25;6179241;23;20149;-82
2023/01/16 11:47:02;;;;;;;4.00;2.80;;;;;;;6.59;100.00;97533.03;6228566;23;20153;-81
2023/01/16 11:49:39;;;;;;;3.07;2.60;;;;;;;6.64;100.00;97536.59;6179023;23;20157;-82
2023/01/16 11:52:13;;;;;;;3.40;2.90;;;;;;;6.55;100.00;97516.78;6179345;23;20224;-82
2023/01/16 11:54:40;;;;;;;2.90;2.37;;;;;;;6.66;100.00;97519.56;6205552;23;20154;-83
2023/01/16 11:57:38;;;;;;;2.40;2.20;;;;;;;6.82;100.00;97510.72;6154293;23;20174;-82
2023/01/16 12:00:09;;;;;;;3.30;2.70;;;;;;;6.95;100.00;97495.19;6204291;23;20168;-82
2023/01/16 12:03:02;;;;;;;3.10;2.43;;;;;;;6.89;100.00;97490.06;6230963;23;20154;-83
2023/01/16 12:05:54;;;;;;;3.47;3.17;;;;;;;7.02;100.00;97493.16;6204038;23;20245;-82
2023/01/16 12:08:42;;;;;;;3.03;2.73;;;;;;;7.01;100.00;97472.09;6183872;23;20515;-81
2023/01/16 12:11:28;;;;;;;2.77;2.57;;;;;;;7.32;100.00;97455.41;6259457;23;20260;-82
2023/01/16 12:14:20;;;;;;;2.20;2.00;;;;;;;7.26;100.00;97447.63;6259300;23;20540;-82
2023/01/16 12:16:59;;;;;;;3.07;2.03;;;;;;;7.22;100.00;97438.53;6185509;23;20205;-82
2023/01/16 12:19:33;;;;;;;3.03;2.50;;;;;;;7.13;100.00;97424.84;6234040;23;20205;-82
2023/01/16 12:22:03;;;;;;;4.23;2.77;;;;;;;7.28;100.00;97432.19;6234110;23;20216;-81
2023/01/16 12:24:42;;;;;;;4.93;3.40;;;;;;;7.30;100.00;97406.09;6258062;23;20209;-82
2023/01/16 12:27:31;;;;;;;3.70;3.40;;;;;;;7.42;100.00;97401.41;6209872;23;20209;-82
2023/01/16 12:30:35;;;;;;;4.80;2.63;;;;;;;7.53;100.00;97395.13;6209321;23;20205;-82
2023/01/16 12:33:13;;;;;;;1.63;1.50;;;;;;;7.30;100.00;97393.59;6258496;23;20224;-82
2023/01/16 12:35:48;;;;;;;1.90;1.70;;;;;;;7.02;100.00;97392.00;6259978;23;20280;-82
2023/01/16 12:38:20;;;;;;;2.57;2.03;;;;;;;6.79;100.00;97381.63;6231546;23;20212;-81
2023/01/16 12:44:10;;;;;;;2.20;2.00;;;;;;;6.27;100.00;97375.13;6259583;23;20547;-82
2023/01/16 12:46:59;;;;;;;5.13;2.67;;;;;;;6.15;100.00;97367.28;6258849;23;20196;-82
2023/01/16 12:49:56;;;;;;;1.77;1.30;;;;;;;6.16;100.00;97358.25;6232308;23;20205;-82
2023/01/16 12:52:47;;;;;;;1.67;1.47;;;;;;;6.08;100.00;97362.13;6233583;23;20214;-82
2023/01/16 12:55:29;;;;;;;2.47;1.70;;;;;;;6.10;100.00;97346.75;6233129;23;20260;-82
2023/01/16 12:58:18;;;;;;;3.33;3.00;;;;;;;6.16;100.00;97342.28;6259129;23;20228;-80
2023/01/16 13:00:50;;;;;;;2.80;2.00;;;;;;;6.01;100.00;97339.44;6259797;23;20209;-79
2023/01/16 13:03:34;;;;;;;3.43;3.00;;;;;;;6.02;100.00;97333.88;6260528;23;20209;-80
2023/01/16 13:06:02;;;;;;;3.03;2.03;;;;;;;5.91;100.00;97328.69;6225598;23;20665;-78
2023/01/16 13:08:58;;;;;;;3.60;2.03;;;;;;;5.88;100.00;97323.88;6228309;23;20201;-81
2023/01/16 13:14:31;;;;;;;4.10;3.50;;;;;;;5.98;100.00;97314.16;6230409;23;20204;-82
2023/01/16 13:17:08;;;;;;;4.10;3.70;;;;;;;5.78;100.00;97307.75;6226160;23;20614;-79
2023/01/16 13:19:38;;;;;;;5.70;4.70;;;;;;;5.79;100.00;97307.47;6223234;23;20235;-80
2023/01/16 13:22:14;;;;;;;6.47;5.40;;;;;;;5.78;100.00;97295.28;6205878;23;20216;-79
2023/01/16 13:24:57;;;;;;;4.83;3.30;;;;;;;5.87;100.00;97295.69;6234215;23;20204;-79
2023/01/16 13:27:47;;;;;;;5.37;4.87;;;;;;;5.72;100.00;97282.97;6233130;23;20208;-79
2023/01/16 13:30:17;;;;;;;7.47;5.60;;;;;;;5.58;100.00;97284.34;6260450;23;20209;-82
2023/01/16 13:32:54;;;;;;;7.47;6.37;;;;;;;5.54;100.00;97272.63;6236741;23;20254;-83
2023/01/16 13:35:26;;;;;;;5.67;4.10;;;;;;;5.41;100.00;97267.66;6236717;23;20645;-83
2023/01/16 13:38:17;;;;;;;6.73;6.00;;;;;;;5.27;100.00;97260.00;6211377;23;20216;-83